PWSweather.com
Personal Weather Stations
Station Observations
CW4114
Near Downtown, Rogers City, MI 49779

Near DowntownRogers City, MI 49779

Lat: 45.417443, Lon: -83.810642

Elevation: 605

Station Type: Davis Vantage Pro2 w/Solar

Latest ConditionsUpdated 11:54:20 AM EDT Friday, Apr 29, 2016
Currently Today's Max Today's Min Today's Average
Temperature 41.0°F5.0°C 41.0°F5.0°C 30.6°F-0.8°C 35.5°F1.9°C
Dew Point 36.5°F2.5°C 36.5°F2.5°C 28.8°F-1.8°C 32.9°F0.5°C
Winds 3.8 mph ENE6.1 kmh ENE 3.8 mph ENE6.1 kmh ENE - 1.2 mph 1.9 kmh
Wind Gusts 6.3 mph10.1 kmh 6.3 mph10.1 kmh - -
Humidity 84% 94% 84% 90%
Pressure 30.20 in1022.7 mb 30.20 in1022.7 mb 30.12 in1020.0 mb -
Hour Temp Dew Point Humidity Winds Wind Gusts Pressure Precip Precip Rate Daily Precip Total
11:54 AM 41.0°F5.0°C 36.5°F2.5°C 84% 3.8 mph ENE6.1 kmh ENE 6.3 mph10.1 kmh 30.20 in1022.7 mb 0.00 in0.0 mm 0.00 in0.0 mm 0.00 in0.0 mm
11:49 AM 40.8°F4.9°C 36.3°F2.4°C 84% 2.9 mph ENE4.7 kmh ENE 5.4 mph8.7 kmh 30.20 in1022.7 mb 0.00 in0.0 mm 0.00 in0.0 mm 0.00 in0.0 mm
11:44 AM 40.6°F4.8°C 36.1°F2.3°C 84% 2.5 mph E4.0 kmh E 4.3 mph6.9 kmh 30.20 in1022.7 mb 0.00 in0.0 mm 0.00 in0.0 mm 0.00 in0.0 mm
11:39 AM 40.3°F4.6°C 36.1°F2.3°C 85% 2.0 mph E3.2 kmh E 4.3 mph6.9 kmh 30.20 in1022.7 mb 0.00 in0.0 mm 0.00 in0.0 mm 0.00 in0.0 mm
11:34 AM 40.3°F4.6°C 36.1°F2.3°C 85% 1.8 mph NE2.9 kmh NE 3.1 mph5.0 kmh 30.19 in1022.4 mb 0.00 in0.0 mm 0.00 in0.0 mm 0.00 in0.0 mm
11:29 AM 40.1°F4.5°C 35.6°F2.0°C 84% 2.9 mph ESE4.7 kmh ESE 5.4 mph8.7 kmh 30.20 in1022.7 mb 0.00 in0.0 mm 0.00 in0.0 mm 0.00 in0.0 mm
11:24 AM 40.3°F4.6°C 36.1°F2.3°C 85% 3.8 mph ENE6.1 kmh ENE 5.4 mph8.7 kmh 30.19 in1022.4 mb 0.00 in0.0 mm 0.00 in0.0 mm 0.00 in0.0 mm
11:19 AM 40.3°F4.6°C 36.1°F2.3°C 85% 3.6 mph E5.8 kmh E 6.3 mph10.1 kmh 30.19 in1022.4 mb 0.00 in0.0 mm 0.00 in0.0 mm 0.00 in0.0 mm
11:14 AM 40.3°F4.6°C 36.1°F2.3°C 85% 2.7 mph E4.3 kmh E 5.4 mph8.7 kmh 30.19 in1022.4 mb 0.00 in0.0 mm 0.00 in0.0 mm 0.00 in0.0 mm
11:09 AM 40.1°F4.5°C 36.0°F2.2°C 85% 2.0 mph NE3.2 kmh NE 6.3 mph10.1 kmh 30.19 in1022.4 mb 0.00 in0.0 mm 0.00 in0.0 mm 0.00 in0.0 mm
11:04 AM 40.1°F4.5°C 36.3°F2.4°C 86% 3.4 mph NE5.5 kmh NE 4.3 mph6.9 kmh 30.19 in1022.4 mb 0.00 in0.0 mm 0.00 in0.0 mm 0.00 in0.0 mm
10:59 AM 39.9°F4.4°C 35.8°F2.1°C 85% 3.4 mph ENE5.5 kmh ENE 5.4 mph8.7 kmh 30.19 in1022.4 mb 0.00 in0.0 mm 0.00 in0.0 mm 0.00 in0.0 mm
10:54 AM 40.1°F4.5°C 36.3°F2.4°C 86% 2.9 mph E4.7 kmh E 4.3 mph6.9 kmh 30.19 in1022.4 mb 0.00 in0.0 mm 0.00 in0.0 mm 0.00 in0.0 mm
10:49 AM 40.1°F4.5°C 36.3°F2.4°C 86% 2.2 mph ENE3.5 kmh ENE 5.4 mph8.7 kmh 30.19 in1022.4 mb 0.00 in0.0 mm 0.00 in0.0 mm 0.00 in0.0 mm
10:44 AM 40.3°F4.6°C 36.5°F2.5°C 86% 3.6 mph ENE5.8 kmh ENE 4.3 mph6.9 kmh 30.19 in1022.4 mb 0.00 in0.0 mm 0.00 in0.0 mm 0.00 in0.0 mm
10:39 AM 40.3°F4.6°C 36.5°F2.5°C 86% 1.3 mph E2.1 kmh E 4.3 mph6.9 kmh 30.19 in1022.4 mb 0.00 in0.0 mm 0.00 in0.0 mm 0.00 in0.0 mm
10:34 AM 40.3°F4.6°C 36.5°F2.5°C 86% 1.6 mph ENE2.6 kmh ENE 5.4 mph8.7 kmh 30.19 in1022.4 mb 0.00 in0.0 mm 0.00 in0.0 mm 0.00 in0.0 mm
10:29 AM 40.3°F4.6°C 36.1°F2.3°C 85% 3.6 mph NE5.8 kmh NE 6.3 mph10.1 kmh 30.19 in1022.4 mb 0.00 in0.0 mm 0.00 in0.0 mm 0.00 in0.0 mm
10:24 AM 40.3°F4.6°C 36.5°F2.5°C 86% 2.5 mph NE4.0 kmh NE 4.3 mph6.9 kmh 30.19 in1022.4 mb 0.00 in0.0 mm 0.00 in0.0 mm 0.00 in0.0 mm
10:19 AM 40.1°F4.5°C 36.3°F2.4°C 86% 2.2 mph ENE3.5 kmh ENE 5.4 mph8.7 kmh 30.19 in1022.4 mb 0.00 in0.0 mm 0.00 in0.0 mm 0.00 in0.0 mm
10:14 AM 40.1°F4.5°C 36.3°F2.4°C 86% 2.0 mph NE3.2 kmh NE 4.3 mph6.9 kmh 30.19 in1022.4 mb 0.00 in0.0 mm 0.00 in0.0 mm 0.00 in0.0 mm
10:09 AM 39.9°F4.4°C 36.1°F2.3°C 86% 0.7 mph E1.1 kmh E 3.1 mph5.0 kmh 30.19 in1022.4 mb 0.00 in0.0 mm 0.00 in0.0 mm 0.00 in0.0 mm
10:04 AM 39.7°F4.3°C 36.0°F2.2°C 86% 0.9 mph ENE1.4 kmh ENE 3.1 mph5.0 kmh 30.19 in1022.4 mb 0.00 in0.0 mm 0.00 in0.0 mm 0.00 in0.0 mm
09:59 AM 39.6°F4.2°C 35.8°F2.1°C 86% 3.4 mph NE5.5 kmh NE 5.4 mph8.7 kmh 30.19 in1022.4 mb 0.00 in0.0 mm 0.00 in0.0 mm 0.00 in0.0 mm
09:54 AM 39.6°F4.2°C 35.8°F2.1°C 86% 2.7 mph ENE4.3 kmh ENE 4.3 mph6.9 kmh 30.19 in1022.4 mb 0.00 in0.0 mm 0.00 in0.0 mm 0.00 in0.0 mm
09:49 AM 39.6°F4.2°C 35.8°F2.1°C 86% 3.4 mph ENE5.5 kmh ENE 5.4 mph8.7 kmh 30.19 in1022.4 mb 0.00 in0.0 mm 0.00 in0.0 mm 0.00 in0.0 mm
09:44 AM 39.6°F4.2°C 35.8°F2.1°C 86% 2.7 mph NE4.3 kmh NE 4.3 mph6.9 kmh 30.19 in1022.4 mb 0.00 in0.0 mm 0.00 in0.0 mm 0.00 in0.0 mm
09:39 AM 39.6°F4.2°C 35.8°F2.1°C 86% 3.1 mph ENE5.0 kmh ENE 4.3 mph6.9 kmh 30.19 in1022.4 mb 0.00 in0.0 mm 0.00 in0.0 mm 0.00 in0.0 mm
09:34 AM 39.6°F4.2°C 35.8°F2.1°C 86% 1.8 mph NE2.9 kmh NE 4.3 mph6.9 kmh 30.19 in1022.4 mb 0.00 in0.0 mm 0.00 in0.0 mm 0.00 in0.0 mm
09:29 AM 39.6°F4.2°C 35.8°F2.1°C 86% 2.5 mph E4.0 kmh E 5.4 mph8.7 kmh 30.19 in1022.4 mb 0.00 in0.0 mm 0.00 in0.0 mm 0.00 in0.0 mm
09:24 AM 39.4°F4.1°C 35.6°F2.0°C 86% 2.7 mph NE4.3 kmh NE 5.4 mph8.7 kmh 30.19 in1022.4 mb 0.00 in0.0 mm 0.00 in0.0 mm 0.00 in0.0 mm
09:19 AM 39.6°F4.2°C 35.8°F2.1°C 86% 2.7 mph NE4.3 kmh NE 4.3 mph6.9 kmh 30.19 in1022.4 mb 0.00 in0.0 mm 0.00 in0.0 mm 0.00 in0.0 mm
09:14 AM 39.4°F4.1°C 35.6°F2.0°C 86% 1.1 mph ENE1.8 kmh ENE 3.1 mph5.0 kmh 30.19 in1022.4 mb 0.00 in0.0 mm 0.00 in0.0 mm 0.00 in0.0 mm
09:09 AM 39.4°F4.1°C 35.6°F2.0°C 86% 2.2 mph NE3.5 kmh NE 4.3 mph6.9 kmh 30.19 in1022.4 mb 0.00 in0.0 mm 0.00 in0.0 mm 0.00 in0.0 mm
09:04 AM 39.4°F4.1°C 35.8°F2.1°C 87% 1.1 mph NE1.8 kmh NE 3.1 mph5.0 kmh 30.19 in1022.4 mb 0.00 in0.0 mm 0.00 in0.0 mm 0.00 in0.0 mm
08:59 AM 39.0°F3.9°C 35.2°F1.8°C 86% 0.9 mph ENE1.4 kmh ENE 2.0 mph3.2 kmh 30.19 in1022.4 mb 0.00 in0.0 mm 0.00 in0.0 mm 0.00 in0.0 mm
08:54 AM 39.0°F3.9°C 35.2°F1.8°C 86% 1.1 mph NE1.8 kmh NE 3.1 mph5.0 kmh 30.19 in1022.4 mb 0.00 in0.0 mm 0.00 in0.0 mm 0.00 in0.0 mm
08:49 AM 39.0°F3.9°C 35.2°F1.8°C 86% 1.6 mph NE2.6 kmh NE 3.1 mph5.0 kmh 30.18 in1022.0 mb 0.00 in0.0 mm 0.00 in0.0 mm 0.00 in0.0 mm
08:44 AM 39.0°F3.9°C 35.2°F1.8°C 86% 1.1 mph E1.8 kmh E 2.0 mph3.2 kmh 30.18 in1022.0 mb 0.00 in0.0 mm 0.00 in0.0 mm 0.00 in0.0 mm
08:39 AM 39.0°F3.9°C 35.4°F1.9°C 87% 0.7 mph NE1.1 kmh NE 2.0 mph3.2 kmh 30.18 in1022.0 mb 0.00 in0.0 mm 0.00 in0.0 mm 0.00 in0.0 mm
08:34 AM 39.0°F3.9°C 35.2°F1.8°C 86% 0.9 mph ENE1.4 kmh ENE 2.0 mph3.2 kmh 30.18 in1022.0 mb 0.00 in0.0 mm 0.00 in0.0 mm 0.00 in0.0 mm
08:29 AM 38.8°F3.8°C 35.1°F1.7°C 86% 0.4 mph E0.6 kmh E 3.1 mph5.0 kmh 30.18 in1022.0 mb 0.00 in0.0 mm 0.00 in0.0 mm 0.00 in0.0 mm
08:24 AM 38.8°F3.8°C 35.2°F1.8°C 87% 0.4 mph E0.6 kmh E 1.1 mph1.8 kmh 30.18 in1022.0 mb 0.00 in0.0 mm 0.00 in0.0 mm 0.00 in0.0 mm
08:19 AM 38.8°F3.8°C 35.2°F1.8°C 87% 0.9 mph E1.4 kmh E 2.0 mph3.2 kmh 30.18 in1022.0 mb 0.00 in0.0 mm 0.00 in0.0 mm 0.00 in0.0 mm
08:14 AM 38.8°F3.8°C 35.6°F2.0°C 88% 1.6 mph E2.6 kmh E 4.3 mph6.9 kmh 30.18 in1022.0 mb 0.00 in0.0 mm 0.00 in0.0 mm 0.00 in0.0 mm
08:09 AM 38.7°F3.7°C 35.4°F1.9°C 88% 2.2 mph NE3.5 kmh NE 4.3 mph6.9 kmh 30.18 in1022.0 mb 0.00 in0.0 mm 0.00 in0.0 mm 0.00 in0.0 mm
08:04 AM 38.7°F3.7°C 35.8°F2.1°C 89% 1.8 mph E2.9 kmh E 3.1 mph5.0 kmh 30.18 in1022.0 mb 0.00 in0.0 mm 0.00 in0.0 mm 0.00 in0.0 mm
07:59 AM 38.5°F3.6°C 35.6°F2.0°C 89% 2.2 mph ENE3.5 kmh ENE 3.1 mph5.0 kmh 30.18 in1022.0 mb 0.00 in0.0 mm 0.00 in0.0 mm 0.00 in0.0 mm
07:54 AM 38.1°F3.4°C 35.2°F1.8°C 89% 1.8 mph NE2.9 kmh NE 3.1 mph5.0 kmh 30.17 in1021.7 mb 0.00 in0.0 mm 0.00 in0.0 mm 0.00 in0.0 mm
07:49 AM 37.9°F3.3°C 35.2°F1.8°C 90% 1.8 mph E2.9 kmh E 3.1 mph5.0 kmh 30.17 in1021.7 mb 0.00 in0.0 mm 0.00 in0.0 mm 0.00 in0.0 mm
07:44 AM 37.8°F3.2°C 35.4°F1.9°C 91% 2.5 mph ENE4.0 kmh ENE 3.1 mph5.0 kmh 30.17 in1021.7 mb 0.00 in0.0 mm 0.00 in0.0 mm 0.00 in0.0 mm
07:39 AM 37.4°F3.0°C 35.2°F1.8°C 92% 2.0 mph E3.2 kmh E 3.1 mph5.0 kmh 30.17 in1021.7 mb 0.00 in0.0 mm 0.00 in0.0 mm 0.00 in0.0 mm
07:34 AM 37.0°F2.8°C 34.9°F1.6°C 92% 1.6 mph ENE2.6 kmh ENE 3.1 mph5.0 kmh 30.17 in1021.7 mb 0.00 in0.0 mm 0.00 in0.0 mm 0.00 in0.0 mm
07:29 AM 36.9°F2.7°C 35.1°F1.7°C 93% 0.9 mph ENE1.4 kmh ENE 3.1 mph5.0 kmh 30.17 in1021.7 mb 0.00 in0.0 mm 0.00 in0.0 mm 0.00 in0.0 mm
07:24 AM 36.5°F2.5°C 34.7°F1.5°C 93% 0.7 mph ENE1.1 kmh ENE 2.0 mph3.2 kmh 30.17 in1021.7 mb 0.00 in0.0 mm 0.00 in0.0 mm 0.00 in0.0 mm
07:19 AM 36.1°F2.3°C 34.5°F1.4°C 94% 0.9 mph ENE1.4 kmh ENE 2.0 mph3.2 kmh 30.17 in1021.7 mb 0.00 in0.0 mm 0.00 in0.0 mm 0.00 in0.0 mm
07:14 AM 36.0°F2.2°C 34.3°F1.3°C 94% 0.2 mph NE0.3 kmh NE 2.0 mph3.2 kmh 30.17 in1021.7 mb 0.00 in0.0 mm 0.00 in0.0 mm 0.00 in0.0 mm
07:09 AM 35.8°F2.1°C 34.2°F1.2°C 94% 0.2 mph ENE0.3 kmh ENE 3.1 mph5.0 kmh 30.16 in1021.3 mb 0.00 in0.0 mm 0.00 in0.0 mm 0.00 in0.0 mm
07:04 AM 35.2°F1.8°C 33.6°F0.9°C 94% 1.3 mph ENE2.1 kmh ENE 3.1 mph5.0 kmh 30.16 in1021.3 mb 0.00 in0.0 mm 0.00 in0.0 mm 0.00 in0.0 mm
06:59 AM 34.5°F1.4°C 32.9°F0.5°C 94% 1.8 mph NE2.9 kmh NE 4.3 mph6.9 kmh 30.16 in1021.3 mb 0.00 in0.0 mm 0.00 in0.0 mm 0.00 in0.0 mm
06:54 AM 34.2°F1.2°C 32.4°F0.2°C 93% 1.8 mph NE2.9 kmh NE 3.1 mph5.0 kmh 30.16 in1021.3 mb 0.00 in0.0 mm 0.00 in0.0 mm 0.00 in0.0 mm
06:49 AM 34.2°F1.2°C 32.4°F0.2°C 93% 0.7 mph NNE1.1 kmh NNE 2.0 mph3.2 kmh 30.15 in1021.0 mb 0.00 in0.0 mm 0.00 in0.0 mm 0.00 in0.0 mm
06:44 AM 34.0°F1.1°C 32.2°F0.1°C 93% Calm Calm 1.1 mph1.8 kmh 30.16 in1021.3 mb 0.00 in0.0 mm 0.00 in0.0 mm 0.00 in0.0 mm
06:39 AM 33.8°F1.0°C 32.0°F0.0°C 93% Calm Calm -- 30.15 in1021.0 mb 0.00 in0.0 mm 0.00 in0.0 mm 0.00 in0.0 mm
06:34 AM 33.6°F0.9°C 31.8°F-0.1°C 93% Calm Calm 1.1 mph1.8 kmh 30.15 in1021.0 mb 0.00 in0.0 mm 0.00 in0.0 mm 0.00 in0.0 mm
06:29 AM 33.4°F0.8°C 31.6°F-0.2°C 93% Calm Calm -- 30.15 in1021.0 mb 0.00 in0.0 mm 0.00 in0.0 mm 0.00 in0.0 mm
06:24 AM 33.4°F0.8°C 31.6°F-0.2°C 93% Calm Calm -- 30.15 in1021.0 mb 0.00 in0.0 mm 0.00 in0.0 mm 0.00 in0.0 mm
06:19 AM 33.3°F0.7°C 31.5°F-0.3°C 93% Calm Calm -- 30.15 in1021.0 mb 0.00 in0.0 mm 0.00 in0.0 mm 0.00 in0.0 mm
06:14 AM 33.3°F0.7°C 31.5°F-0.3°C 93% Calm Calm -- 30.15 in1021.0 mb 0.00 in0.0 mm 0.00 in0.0 mm 0.00 in0.0 mm
06:09 AM 33.3°F0.7°C 31.5°F-0.3°C 93% Calm Calm -- 30.15 in1021.0 mb 0.00 in0.0 mm 0.00 in0.0 mm 0.00 in0.0 mm
06:04 AM 33.1°F0.6°C 31.3°F-0.4°C 93% Calm Calm -- 30.15 in1021.0 mb 0.00 in0.0 mm 0.00 in0.0 mm 0.00 in0.0 mm
05:59 AM 33.1°F0.6°C 31.3°F-0.4°C 93% 0.2 mph W0.3 kmh W 2.0 mph3.2 kmh 30.14 in1020.7 mb 0.00 in0.0 mm 0.00 in0.0 mm 0.00 in0.0 mm
05:54 AM 33.1°F0.6°C 31.3°F-0.4°C 93% 1.1 mph W1.8 kmh W 2.0 mph3.2 kmh 30.14 in1020.7 mb 0.00 in0.0 mm 0.00 in0.0 mm 0.00 in0.0 mm
05:49 AM 33.1°F0.6°C 31.3°F-0.4°C 93% 0.2 mph W0.3 kmh W 1.1 mph1.8 kmh 30.14 in1020.7 mb 0.00 in0.0 mm 0.00 in0.0 mm 0.00 in0.0 mm
05:44 AM 33.1°F0.6°C 31.3°F-0.4°C 93% 0.9 mph W1.4 kmh W 2.0 mph3.2 kmh 30.14 in1020.7 mb 0.00 in0.0 mm 0.00 in0.0 mm 0.00 in0.0 mm
05:39 AM 32.9°F0.5°C 31.1°F-0.5°C 93% 1.3 mph W2.1 kmh W 2.0 mph3.2 kmh 30.14 in1020.7 mb 0.00 in0.0 mm 0.00 in0.0 mm 0.00 in0.0 mm
05:34 AM 32.7°F0.4°C 30.9°F-0.6°C 93% 1.1 mph W1.8 kmh W 2.0 mph3.2 kmh 30.14 in1020.7 mb 0.00 in0.0 mm 0.00 in0.0 mm 0.00 in0.0 mm
05:29 AM 32.7°F0.4°C 30.9°F-0.6°C 93% 1.1 mph W1.8 kmh W 2.0 mph3.2 kmh 30.14 in1020.7 mb 0.00 in0.0 mm 0.00 in0.0 mm 0.00 in0.0 mm
05:24 AM 32.5°F0.3°C 30.7°F-0.7°C 93% 0.9 mph W1.4 kmh W 1.1 mph1.8 kmh 30.14 in1020.7 mb 0.00 in0.0 mm 0.00 in0.0 mm 0.00 in0.0 mm
05:19 AM 32.5°F0.3°C 30.7°F-0.7°C 93% 0.7 mph W1.1 kmh W 2.0 mph3.2 kmh 30.14 in1020.7 mb 0.00 in0.0 mm 0.00 in0.0 mm 0.00 in0.0 mm
05:14 AM 32.4°F0.2°C 30.7°F-0.7°C 94% 1.3 mph W2.1 kmh W 3.1 mph5.0 kmh 30.14 in1020.7 mb 0.00 in0.0 mm 0.00 in0.0 mm 0.00 in0.0 mm
05:09 AM 32.4°F0.2°C 30.6°F-0.8°C 93% 1.1 mph W1.8 kmh W 1.1 mph1.8 kmh 30.14 in1020.7 mb 0.00 in0.0 mm 0.00 in0.0 mm 0.00 in0.0 mm
05:04 AM 32.2°F0.1°C 30.6°F-0.8°C 94% 1.8 mph W2.9 kmh W 2.0 mph3.2 kmh 30.14 in1020.7 mb 0.00 in0.0 mm 0.00 in0.0 mm 0.00 in0.0 mm
04:59 AM 31.8°F-0.1°C 30.0°F-1.1°C 93% Calm Calm 1.1 mph1.8 kmh 30.13 in1020.3 mb 0.00 in0.0 mm 0.00 in0.0 mm 0.00 in0.0 mm
04:54 AM 31.6°F-0.2°C 29.8°F-1.2°C 93% 1.1 mph WSW1.8 kmh WSW 2.0 mph3.2 kmh 30.13 in1020.3 mb 0.00 in0.0 mm 0.00 in0.0 mm 0.00 in0.0 mm
04:49 AM 31.6°F-0.2°C 29.8°F-1.2°C 93% 1.1 mph WSW1.8 kmh WSW 1.1 mph1.8 kmh 30.13 in1020.3 mb 0.00 in0.0 mm 0.00 in0.0 mm 0.00 in0.0 mm
04:44 AM 31.5°F-0.3°C 29.7°F-1.3°C 93% 1.1 mph WSW1.8 kmh WSW 2.0 mph3.2 kmh 30.13 in1020.3 mb 0.00 in0.0 mm 0.00 in0.0 mm 0.00 in0.0 mm
04:39 AM 31.5°F-0.3°C 30.0°F-1.1°C 94% 0.9 mph WSW1.4 kmh WSW 1.1 mph1.8 kmh 30.12 in1020.0 mb 0.00 in0.0 mm 0.00 in0.0 mm 0.00 in0.0 mm
04:34 AM 31.3°F-0.4°C 29.8°F-1.2°C 94% Calm Calm -- 30.13 in1020.3 mb 0.00 in0.0 mm 0.00 in0.0 mm 0.00 in0.0 mm
04:29 AM 31.3°F-0.4°C 29.8°F-1.2°C 94% 1.1 mph WSW1.8 kmh WSW 1.1 mph1.8 kmh 30.13 in1020.3 mb 0.00 in0.0 mm 0.00 in0.0 mm 0.00 in0.0 mm
04:24 AM 31.3°F-0.4°C 29.8°F-1.2°C 94% 0.7 mph WSW1.1 kmh WSW 2.0 mph3.2 kmh 30.13 in1020.3 mb 0.00 in0.0 mm 0.00 in0.0 mm 0.00 in0.0 mm
04:19 AM 31.1°F-0.5°C 29.7°F-1.3°C 94% 1.1 mph WSW1.8 kmh WSW 1.1 mph1.8 kmh 30.13 in1020.3 mb 0.00 in0.0 mm 0.00 in0.0 mm 0.00 in0.0 mm
04:14 AM 30.9°F-0.6°C 29.5°F-1.4°C 94% 1.1 mph WSW1.8 kmh WSW 3.1 mph5.0 kmh 30.12 in1020.0 mb 0.00 in0.0 mm 0.00 in0.0 mm 0.00 in0.0 mm
04:09 AM 30.7°F-0.7°C 29.3°F-1.5°C 94% 0.7 mph W1.1 kmh W 3.1 mph5.0 kmh 30.12 in1020.0 mb 0.00 in0.0 mm 0.00 in0.0 mm 0.00 in0.0 mm
04:04 AM 30.7°F-0.7°C 29.3°F-1.5°C 94% 0.9 mph WNW1.4 kmh WNW 2.0 mph3.2 kmh 30.12 in1020.0 mb 0.00 in0.0 mm 0.00 in0.0 mm 0.00 in0.0 mm
03:59 AM 30.7°F-0.7°C 28.9°F-1.7°C 93% 2.0 mph W3.2 kmh W 2.0 mph3.2 kmh 30.13 in1020.3 mb 0.00 in0.0 mm 0.00 in0.0 mm 0.00 in0.0 mm
03:54 AM 30.6°F-0.8°C 28.8°F-1.8°C 93% 1.3 mph W2.1 kmh W 2.0 mph3.2 kmh 30.13 in1020.3 mb 0.00 in0.0 mm 0.00 in0.0 mm 0.00 in0.0 mm
03:49 AM 30.6°F-0.8°C 28.8°F-1.8°C 93% 1.1 mph WSW1.8 kmh WSW 2.0 mph3.2 kmh 30.13 in1020.3 mb 0.00 in0.0 mm 0.00 in0.0 mm 0.00 in0.0 mm
03:43 AM 30.7°F-0.7°C 28.9°F-1.7°C 93% 1.1 mph WSW1.8 kmh WSW 2.0 mph3.2 kmh 30.12 in1020.0 mb 0.00 in0.0 mm 0.00 in0.0 mm 0.00 in0.0 mm
03:38 AM 30.7°F-0.7°C 28.9°F-1.7°C 93% 1.3 mph WSW2.1 kmh WSW 2.0 mph3.2 kmh 30.12 in1020.0 mb 0.00 in0.0 mm 0.00 in0.0 mm 0.00 in0.0 mm
03:33 AM 30.7°F-0.7°C 28.9°F-1.7°C 93% 1.1 mph WSW1.8 kmh WSW 2.0 mph3.2 kmh 30.12 in1020.0 mb 0.00 in0.0 mm 0.00 in0.0 mm 0.00 in0.0 mm
03:28 AM 30.7°F-0.7°C 28.9°F-1.7°C 93% 1.1 mph WSW1.8 kmh WSW 2.0 mph3.2 kmh 30.12 in1020.0 mb 0.00 in0.0 mm 0.00 in0.0 mm 0.00 in0.0 mm
03:23 AM 30.9°F-0.6°C 29.1°F-1.6°C 93% 1.1 mph WSW1.8 kmh WSW 1.1 mph1.8 kmh 30.12 in1020.0 mb 0.00 in0.0 mm 0.00 in0.0 mm 0.00 in0.0 mm
03:18 AM 30.9°F-0.6°C 28.9°F-1.7°C 92% 1.1 mph WSW1.8 kmh WSW 2.0 mph3.2 kmh 30.12 in1020.0 mb 0.00 in0.0 mm 0.00 in0.0 mm 0.00 in0.0 mm
03:13 AM 30.9°F-0.6°C 28.9°F-1.7°C 92% 1.1 mph WSW1.8 kmh WSW 1.1 mph1.8 kmh 30.12 in1020.0 mb 0.00 in0.0 mm 0.00 in0.0 mm 0.00 in0.0 mm
03:08 AM 31.3°F-0.4°C 29.3°F-1.5°C 92% 1.1 mph WSW1.8 kmh WSW 2.0 mph3.2 kmh 30.12 in1020.0 mb 0.00 in0.0 mm 0.00 in0.0 mm 0.00 in0.0 mm
03:03 AM 31.3°F-0.4°C 29.3°F-1.5°C 92% 1.1 mph WSW1.8 kmh WSW 2.0 mph3.2 kmh 30.12 in1020.0 mb 0.00 in0.0 mm 0.00 in0.0 mm 0.00 in0.0 mm
02:58 AM 31.5°F-0.3°C 29.5°F-1.4°C 92% 1.1 mph WSW1.8 kmh WSW 2.0 mph3.2 kmh 30.12 in1020.0 mb 0.00 in0.0 mm 0.00 in0.0 mm 0.00 in0.0 mm
02:53 AM 31.6°F-0.2°C 29.7°F-1.3°C 92% 0.9 mph WSW1.4 kmh WSW 2.0 mph3.2 kmh 30.12 in1020.0 mb 0.00 in0.0 mm 0.00 in0.0 mm 0.00 in0.0 mm
02:48 AM 31.6°F-0.2°C 29.7°F-1.3°C 92% 1.1 mph WSW1.8 kmh WSW 3.1 mph5.0 kmh 30.12 in1020.0 mb 0.00 in0.0 mm 0.00 in0.0 mm 0.00 in0.0 mm
02:43 AM 31.8°F-0.1°C 29.8°F-1.2°C 92% 1.6 mph WSW2.6 kmh WSW 3.1 mph5.0 kmh 30.12 in1020.0 mb 0.00 in0.0 mm 0.00 in0.0 mm 0.00 in0.0 mm
02:38 AM 31.8°F-0.1°C 29.8°F-1.2°C 92% 0.9 mph WSW1.4 kmh WSW 2.0 mph3.2 kmh 30.12 in1020.0 mb 0.00 in0.0 mm 0.00 in0.0 mm 0.00 in0.0 mm
02:33 AM 32.2°F0.1°C 29.8°F-1.2°C 91% 1.1 mph WSW1.8 kmh WSW 2.0 mph3.2 kmh 30.13 in1020.3 mb 0.00 in0.0 mm 0.00 in0.0 mm 0.00 in0.0 mm
02:28 AM 32.2°F0.1°C 29.8°F-1.2°C 91% 0.9 mph WSW1.4 kmh WSW 2.0 mph3.2 kmh 30.13 in1020.3 mb 0.00 in0.0 mm 0.00 in0.0 mm 0.00 in0.0 mm
02:23 AM 32.4°F0.2°C 30.0°F-1.1°C 91% 1.1 mph WSW1.8 kmh WSW 2.0 mph3.2 kmh 30.13 in1020.3 mb 0.00 in0.0 mm 0.00 in0.0 mm 0.00 in0.0 mm
02:18 AM 32.5°F0.3°C 30.2°F-1.0°C 91% 1.1 mph WSW1.8 kmh WSW 3.1 mph5.0 kmh 30.13 in1020.3 mb 0.00 in0.0 mm 0.00 in0.0 mm 0.00 in0.0 mm
02:13 AM 32.7°F0.4°C 30.2°F-1.0°C 90% 0.2 mph SW0.3 kmh SW 2.0 mph3.2 kmh 30.13 in1020.3 mb 0.00 in0.0 mm 0.00 in0.0 mm 0.00 in0.0 mm
02:08 AM 33.1°F0.6°C 30.4°F-0.9°C 90% 0.9 mph WSW1.4 kmh WSW 2.0 mph3.2 kmh 30.13 in1020.3 mb 0.00 in0.0 mm 0.00 in0.0 mm 0.00 in0.0 mm
02:03 AM 33.4°F0.8°C 30.7°F-0.7°C 90% 1.1 mph WSW1.8 kmh WSW 2.0 mph3.2 kmh 30.13 in1020.3 mb 0.00 in0.0 mm 0.00 in0.0 mm 0.00 in0.0 mm
01:58 AM 33.8°F1.0°C 31.1°F-0.5°C 90% Calm Calm -- 30.14 in1020.7 mb 0.00 in0.0 mm 0.00 in0.0 mm 0.00 in0.0 mm
01:53 AM 34.2°F1.2°C 31.5°F-0.3°C 90% Calm Calm -- 30.14 in1020.7 mb 0.00 in0.0 mm 0.00 in0.0 mm 0.00 in0.0 mm
01:48 AM 34.3°F1.3°C 32.0°F0.0°C 91% Calm Calm -- 30.14 in1020.7 mb 0.00 in0.0 mm 0.00 in0.0 mm 0.00 in0.0 mm
01:43 AM 34.3°F1.3°C 32.0°F0.0°C 91% Calm Calm -- 30.14 in1020.7 mb 0.00 in0.0 mm 0.00 in0.0 mm 0.00 in0.0 mm
01:38 AM 34.5°F1.4°C 32.2°F0.1°C 91% Calm Calm -- 30.14 in1020.7 mb 0.00 in0.0 mm 0.00 in0.0 mm 0.00 in0.0 mm
01:33 AM 34.5°F1.4°C 32.2°F0.1°C 91% 0.2 mph N0.3 kmh N 1.1 mph1.8 kmh 30.14 in1020.7 mb 0.00 in0.0 mm 0.00 in0.0 mm 0.00 in0.0 mm
01:28 AM 34.5°F1.4°C 32.2°F0.1°C 91% Calm Calm 1.1 mph1.8 kmh 30.13 in1020.3 mb 0.00 in0.0 mm 0.00 in0.0 mm 0.00 in0.0 mm
01:23 AM 34.5°F1.4°C 32.2°F0.1°C 91% Calm Calm -- 30.13 in1020.3 mb 0.00 in0.0 mm 0.00 in0.0 mm 0.00 in0.0 mm
01:18 AM 34.7°F1.5°C 32.0°F0.0°C 90% Calm Calm -- 30.13 in1020.3 mb 0.00 in0.0 mm 0.00 in0.0 mm 0.00 in0.0 mm
01:13 AM 34.9°F1.6°C 32.2°F0.1°C 90% Calm Calm 1.1 mph1.8 kmh 30.13 in1020.3 mb 0.00 in0.0 mm 0.00 in0.0 mm 0.00 in0.0 mm
01:08 AM 35.1°F1.7°C 32.7°F0.4°C 91% Calm Calm -- 30.13 in1020.3 mb 0.00 in0.0 mm 0.00 in0.0 mm 0.00 in0.0 mm
01:03 AM 35.2°F1.8°C 32.9°F0.5°C 91% Calm Calm -- 30.13 in1020.3 mb 0.00 in0.0 mm 0.00 in0.0 mm 0.00 in0.0 mm
12:58 AM 35.2°F1.8°C 32.9°F0.5°C 91% Calm Calm -- 30.13 in1020.3 mb 0.00 in0.0 mm 0.00 in0.0 mm 0.00 in0.0 mm
12:53 AM 35.4°F1.9°C 33.1°F0.6°C 91% Calm Calm -- 30.13 in1020.3 mb 0.00 in0.0 mm 0.00 in0.0 mm 0.00 in0.0 mm
12:48 AM 35.4°F1.9°C 33.1°F0.6°C 91% Calm Calm -- 30.13 in1020.3 mb 0.00 in0.0 mm 0.00 in0.0 mm 0.00 in0.0 mm
12:43 AM 35.8°F2.1°C 33.4°F0.8°C 91% Calm Calm -- 30.13 in1020.3 mb 0.00 in0.0 mm 0.00 in0.0 mm 0.00 in0.0 mm
12:38 AM 35.8°F2.1°C 33.4°F0.8°C 91% Calm Calm -- 30.13 in1020.3 mb 0.00 in0.0 mm 0.00 in0.0 mm 0.00 in0.0 mm
12:33 AM 35.8°F2.1°C 33.6°F0.9°C 92% Calm Calm -- 30.13 in1020.3 mb 0.00 in0.0 mm 0.00 in0.0 mm 0.00 in0.0 mm
12:28 AM 35.8°F2.1°C 33.4°F0.8°C 91% Calm Calm -- 30.13 in1020.3 mb 0.00 in0.0 mm 0.00 in0.0 mm 0.00 in0.0 mm
12:23 AM 35.8°F2.1°C 33.6°F0.9°C 92% Calm Calm -- 30.12 in1020.0 mb 0.00 in0.0 mm 0.00 in0.0 mm 0.00 in0.0 mm
12:18 AM 35.8°F2.1°C 33.6°F0.9°C 92% Calm Calm -- 30.13 in1020.3 mb 0.00 in0.0 mm 0.00 in0.0 mm 0.00 in0.0 mm
12:13 AM 35.8°F2.1°C 33.4°F0.8°C 91% Calm Calm -- 30.13 in1020.3 mb 0.00 in0.0 mm 0.00 in0.0 mm 0.00 in0.0 mm
12:08 AM 35.8°F2.1°C 33.4°F0.8°C 91% Calm Calm 1.1 mph1.8 kmh 30.12 in1020.0 mb 0.00 in0.0 mm 0.00 in0.0 mm 0.00 in0.0 mm
12:03 AM 36.0°F2.2°C 33.6°F0.9°C 91% Calm Calm 3.1 mph5.0 kmh 30.13 in1020.3 mb 0.00 in0.0 mm 0.00 in0.0 mm 0.00 in0.0 mm